createdAt,value
2022-08-22T00:00:24.816Z,99.99
2022-08-22T00:01:24.968Z,99.99
2022-08-22T00:02:26.242Z,99.99
2022-08-22T00:02:41.622Z,99.99
2022-08-22T00:02:46.132Z,99.99
2022-08-22T00:02:47.240Z,99.99
2022-08-22T00:02:53.141Z,99.99
2022-08-22T00:02:54.636Z,99.99
2022-08-22T00:03:08.734Z,99.99
2022-08-22T00:03:11.262Z,99.99
2022-08-22T00:03:11.929Z,99.99
2022-08-22T00:03:24.875Z,99.99
2022-08-22T00:04:24.892Z,99.99
2022-08-22T00:05:24.910Z,99.99
2022-08-22T00:06:24.931Z,99.99
2022-08-22T00:07:24.954Z,99.99
2022-08-22T00:08:24.969Z,99.99
2022-08-22T00:09:24.990Z,99.99
2022-08-22T00:10:25.775Z,99.99
2022-08-22T00:11:25.027Z,99.99
2022-08-22T00:12:25.048Z,99.99
2022-08-22T00:13:25.064Z,99.99
2022-08-22T00:14:25.084Z,99.99
2022-08-22T00:15:43.755Z,99.99
2022-08-22T00:16:25.124Z,99.99
2022-08-22T00:17:25.142Z,99.99
2022-08-22T00:18:25.161Z,99.99
2022-08-22T00:19:25.200Z,99.99
2022-08-22T00:20:28.133Z,99.99
2022-08-22T00:21:25.229Z,99.99
2022-08-22T00:22:25.241Z,99.99
2022-08-22T00:23:25.258Z,99.99
2022-08-22T00:24:25.277Z,99.99
2022-08-22T00:25:26.084Z,99.99
2022-08-22T00:26:25.318Z,99.99
2022-08-22T00:27:25.336Z,99.99
2022-08-22T00:28:25.356Z,99.99
2022-08-22T00:29:25.372Z,99.99
2022-08-22T00:30:25.392Z,99.99
2022-08-22T00:31:25.412Z,99.99
2022-08-22T00:32:25.431Z,99.99
2022-08-22T00:33:25.457Z,99.99
2022-08-22T00:34:25.467Z,99.99
2022-08-22T00:35:25.488Z,99.99
2022-08-22T00:36:25.507Z,99.99
2022-08-22T00:37:25.526Z,99.99
2022-08-22T00:38:25.546Z,99.99
2022-08-22T00:39:25.563Z,99.99
2022-08-22T00:40:25.586Z,99.99
2022-08-22T00:41:25.610Z,99.99
2022-08-22T00:42:31.454Z,99.71
2022-08-22T00:43:25.642Z,99.71
2022-08-22T00:44:25.671Z,99.43
2022-08-22T00:45:25.678Z,99.99
2022-08-22T00:46:25.698Z,99.90
2022-08-22T00:47:25.719Z,99.99
2022-08-22T00:48:25.737Z,99.99
2022-08-22T00:49:25.757Z,99.99
2022-08-22T00:50:25.774Z,99.99
2022-08-22T00:51:25.796Z,99.90
2022-08-22T00:52:25.812Z,99.52
2022-08-22T00:53:25.830Z,99.71
2022-08-22T00:54:25.851Z,98.85
2022-08-22T00:55:25.870Z,98.28
2022-08-22T00:56:25.889Z,99.24
2022-08-22T00:57:25.909Z,99.24
2022-08-22T00:58:25.930Z,98.38
2022-08-22T00:59:25.947Z,97.99
2022-08-22T01:00:25.967Z,98.28
2022-08-22T01:01:26.042Z,98.75
2022-08-22T01:02:26.004Z,97.71
2022-08-22T01:03:26.026Z,97.71
2022-08-22T01:04:26.041Z,97.61
2022-08-22T01:05:26.058Z,97.71
2022-08-22T01:06:26.080Z,96.94
2022-08-22T01:07:26.098Z,97.23
2022-08-22T01:08:26.119Z,96.94
2022-08-22T01:09:26.135Z,96.84
2022-08-22T01:10:26.155Z,97.52
2022-08-22T01:11:26.173Z,97.80
2022-08-22T01:12:26.192Z,97.71
2022-08-22T01:13:26.214Z,97.99
2022-08-22T01:14:35.014Z,97.99
2022-08-22T01:15:26.248Z,97.80
2022-08-22T01:16:26.269Z,97.42
2022-08-22T01:17:26.285Z,96.75
2022-08-22T01:18:26.306Z,96.84
2022-08-22T01:19:26.328Z,97.04
2022-08-22T01:20:26.346Z,96.75
2022-08-22T01:21:26.362Z,97.33
2022-08-22T01:22:26.389Z,96.80
2022-08-22T01:23:26.402Z,97.85
2022-08-22T01:24:26.421Z,97.66
2022-08-22T01:25:26.439Z,97.47
2022-08-22T01:26:26.458Z,97.47
2022-08-22T01:27:26.478Z,97.56
2022-08-22T01:28:26.494Z,97.37
2022-08-22T01:29:28.563Z,97.56
2022-08-22T01:30:26.546Z,97.18
2022-08-22T01:31:26.550Z,97.37
2022-08-22T01:32:26.572Z,97.85
2022-08-22T01:33:26.589Z,96.99
2022-08-22T01:34:26.607Z,96.99
2022-08-22T01:35:26.627Z,96.70
2022-08-22T01:36:26.646Z,96.80
2022-08-22T01:37:26.663Z,96.51
2022-08-22T01:38:26.682Z,97.28
2022-08-22T01:39:26.701Z,96.22
2022-08-22T01:40:27.204Z,95.84
2022-08-22T01:41:26.738Z,96.42
2022-08-22T01:42:26.757Z,96.22
2022-08-22T01:43:43.859Z,95.84
2022-08-22T01:44:26.799Z,95.75
2022-08-22T01:45:26.819Z,95.84
2022-08-22T01:46:26.833Z,96.42
2022-08-22T01:47:26.862Z,96.51
2022-08-22T01:48:26.873Z,96.42
2022-08-22T01:49:26.887Z,96.89
2022-08-22T01:50:26.908Z,96.61
2022-08-22T01:51:26.928Z,96.32
2022-08-22T01:52:26.948Z,96.42
2022-08-22T01:53:28.162Z,95.56
2022-08-22T01:54:26.982Z,96.03
2022-08-22T01:55:27.003Z,95.84
2022-08-22T01:56:27.020Z,96.22
2022-08-22T01:57:27.042Z,95.84
2022-08-22T01:58:27.062Z,95.84
2022-08-22T01:59:27.594Z,96.32
2022-08-22T02:00:34.688Z,96.32
2022-08-22T02:01:27.236Z,96.22
2022-08-22T02:02:27.136Z,96.32
2022-08-22T02:03:27.162Z,95.65
2022-08-22T02:04:27.172Z,95.75
2022-08-22T02:05:27.189Z,96.03
2022-08-22T02:06:27.209Z,95.94
2022-08-22T02:07:32.167Z,96.32
2022-08-22T02:08:27.247Z,95.84
2022-08-22T02:09:27.265Z,96.42
2022-08-22T02:10:27.282Z,96.51
2022-08-22T02:11:27.303Z,96.61
2022-08-22T02:12:27.321Z,96.42
2022-08-22T02:13:27.341Z,95.84
2022-08-22T02:14:27.359Z,95.65
2022-08-22T02:15:27.378Z,96.32
2022-08-22T02:16:27.398Z,96.61
2022-08-22T02:17:27.413Z,96.42
2022-08-22T02:18:27.433Z,96.61
2022-08-22T02:19:27.454Z,96.61
2022-08-22T02:20:27.478Z,96.42
2022-08-22T02:21:27.492Z,96.61
2022-08-22T02:22:27.508Z,95.94
2022-08-22T02:23:27.540Z,95.70
2022-08-22T02:24:27.559Z,95.79
2022-08-22T02:25:27.562Z,95.94
2022-08-22T02:26:27.585Z,95.98
2022-08-22T02:27:31.675Z,95.79
2022-08-22T02:28:27.621Z,95.84
2022-08-22T02:29:27.637Z,95.89
2022-08-22T02:30:27.658Z,95.94
2022-08-22T02:31:27.677Z,96.03
2022-08-22T02:32:27.695Z,95.79
2022-08-22T02:33:27.713Z,95.79
2022-08-22T02:34:27.733Z,96.17
2022-08-22T02:35:27.752Z,95.70
2022-08-22T02:36:27.768Z,95.51
2022-08-22T02:37:27.788Z,96.03
2022-08-22T02:38:27.808Z,95.22
2022-08-22T02:39:27.828Z,95.46
2022-08-22T02:40:27.844Z,95.70
2022-08-22T02:41:27.862Z,96.13
2022-08-22T02:42:27.880Z,95.56
2022-08-22T02:43:27.900Z,95.98
2022-08-22T02:44:27.919Z,95.70
2022-08-22T02:45:27.939Z,95.70
2022-08-22T02:46:27.954Z,96.17
2022-08-22T02:47:27.973Z,95.41
2022-08-22T02:48:27.992Z,94.93
2022-08-22T02:49:28.010Z,95.41
2022-08-22T02:50:28.030Z,95.22
2022-08-22T02:51:28.047Z,95.32
2022-08-22T02:52:28.067Z,95.70
2022-08-22T02:53:28.086Z,95.41
2022-08-22T02:54:28.104Z,95.61
2022-08-22T02:55:28.123Z,95.22
2022-08-22T02:56:28.141Z,95.41
2022-08-22T02:57:28.160Z,95.51
2022-08-22T02:58:28.180Z,95.41
2022-08-22T02:59:28.198Z,94.74
2022-08-22T03:00:32.560Z,94.31
2022-08-22T03:01:28.235Z,94.60
2022-08-22T03:02:28.253Z,94.41
2022-08-22T03:03:28.294Z,93.98
2022-08-22T03:04:28.291Z,93.60
2022-08-22T03:05:28.309Z,93.79
2022-08-22T03:06:28.329Z,94.02
2022-08-22T03:07:28.348Z,93.55
2022-08-22T03:08:29.299Z,93.12
2022-08-22T03:09:28.384Z,93.36
2022-08-22T03:10:28.402Z,93.31
2022-08-22T03:11:28.422Z,93.41
2022-08-22T03:12:28.453Z,93.50
2022-08-22T03:13:28.456Z,93.21
2022-08-22T03:14:28.476Z,93.55
2022-08-22T03:15:28.495Z,93.98
2022-08-22T03:16:28.512Z,93.98
2022-08-22T03:17:28.534Z,94.22
2022-08-22T03:18:28.555Z,94.17
2022-08-22T03:19:28.571Z,94.17
2022-08-22T03:20:28.589Z,93.74
2022-08-22T03:21:28.608Z,93.60
2022-08-22T03:22:28.626Z,93.70
2022-08-22T03:23:28.646Z,93.21
2022-08-22T03:24:28.666Z,93.36
2022-08-22T03:25:28.682Z,93.31
2022-08-22T03:26:28.702Z,92.74
2022-08-22T03:27:33.225Z,93.45
2022-08-22T03:28:28.738Z,93.60
2022-08-22T03:29:28.755Z,93.31
2022-08-22T03:30:28.774Z,93.36
2022-08-22T03:31:28.793Z,93.79
2022-08-22T03:32:28.813Z,93.70
2022-08-22T03:33:28.830Z,93.70
2022-08-22T03:34:28.848Z,93.45
2022-08-22T03:35:28.868Z,93.60
2022-08-22T03:36:28.887Z,93.41
2022-08-22T03:37:28.906Z,93.50
2022-08-22T03:38:28.925Z,93.45
2022-08-22T03:39:28.944Z,93.21
2022-08-22T03:40:31.825Z,93.36
2022-08-22T03:41:28.979Z,92.83
2022-08-22T03:42:28.998Z,93.02
2022-08-22T03:43:29.019Z,92.93
2022-08-22T03:44:29.037Z,92.83
2022-08-22T03:45:29.053Z,92.64
2022-08-22T03:46:29.073Z,92.45
2022-08-22T03:47:29.094Z,92.93
2022-08-22T03:48:29.110Z,92.88
2022-08-22T03:49:29.131Z,93.16
2022-08-22T03:50:29.148Z,92.79
2022-08-22T03:51:29.167Z,92.69
2022-08-22T03:52:29.182Z,92.69
2022-08-22T03:53:29.203Z,92.79
2022-08-22T03:54:30.659Z,92.97
2022-08-22T03:55:29.241Z,92.59
2022-08-22T03:56:29.262Z,92.79
2022-08-22T03:57:29.278Z,92.21
2022-08-22T03:58:29.296Z,92.69
2022-08-22T03:59:29.317Z,92.79
2022-08-22T04:00:29.382Z,92.02
2022-08-22T04:01:29.352Z,92.21
2022-08-22T04:02:42.953Z,91.83
2022-08-22T04:03:29.391Z,91.64
2022-08-22T04:04:29.409Z,91.25
2022-08-22T04:05:29.430Z,91.54
2022-08-22T04:06:29.453Z,92.30
2022-08-22T04:07:32.037Z,92.11
2022-08-22T04:08:29.484Z,91.83
2022-08-22T04:09:29.503Z,92.30
2022-08-22T04:10:29.536Z,92.88
2022-08-22T04:11:29.550Z,92.50
2022-08-22T04:12:29.560Z,92.69
2022-08-22T04:13:29.581Z,92.69
2022-08-22T04:14:29.605Z,92.88
2022-08-22T04:15:29.621Z,92.97
2022-08-22T04:16:29.637Z,92.50
2022-08-22T04:17:29.654Z,92.50
2022-08-22T04:18:30.251Z,92.30
2022-08-22T04:19:29.692Z,92.11
2022-08-22T04:20:29.711Z,91.54
2022-08-22T04:21:29.728Z,91.74
2022-08-22T04:22:29.747Z,91.54
2022-08-22T04:23:29.767Z,92.30
2022-08-22T04:24:29.787Z,92.21
2022-08-22T04:25:29.808Z,92.11
2022-08-22T04:26:29.826Z,92.11
2022-08-22T04:27:29.844Z,92.50
2022-08-22T04:28:29.864Z,92.40
2022-08-22T04:29:29.881Z,92.11
2022-08-22T04:30:29.899Z,92.21
2022-08-22T04:31:29.922Z,92.11
2022-08-22T04:32:29.938Z,91.83
2022-08-22T04:33:29.955Z,92.21
2022-08-22T04:34:29.978Z,92.30
2022-08-22T04:35:29.996Z,91.83
2022-08-22T04:36:30.014Z,92.30
2022-08-22T04:37:30.032Z,91.83
2022-08-22T04:38:30.051Z,91.88
2022-08-22T04:39:30.069Z,92.11
2022-08-22T04:40:30.090Z,92.07
2022-08-22T04:41:30.109Z,92.45
2022-08-22T04:42:32.851Z,92.07
2022-08-22T04:43:30.146Z,92.45
2022-08-22T04:44:30.167Z,92.16
2022-08-22T04:45:30.185Z,92.45
2022-08-22T04:46:32.097Z,92.25
2022-08-22T04:47:30.223Z,91.97
2022-08-22T04:48:30.242Z,92.25
2022-08-22T04:49:30.262Z,92.25
2022-08-22T04:50:30.281Z,92.45
2022-08-22T04:51:30.299Z,92.35
2022-08-22T04:52:30.323Z,92.35
2022-08-22T04:53:30.338Z,92.25
2022-08-22T04:54:30.356Z,92.25
2022-08-22T04:55:30.376Z,92.25
2022-08-22T04:56:30.399Z,92.16
2022-08-22T04:57:30.413Z,92.45
2022-08-22T04:58:30.435Z,92.16
2022-08-22T04:59:30.452Z,92.54
2022-08-22T05:00:30.473Z,92.35
2022-08-22T05:01:30.630Z,92.54
2022-08-22T05:02:30.513Z,92.35
2022-08-22T05:03:30.531Z,92.54
2022-08-22T05:04:30.552Z,92.16
2022-08-22T05:05:30.571Z,92.07
2022-08-22T05:06:30.590Z,91.88
2022-08-22T05:07:34.772Z,91.78
2022-08-22T05:08:30.631Z,91.59
2022-08-22T05:09:30.646Z,91.20
2022-08-22T05:10:30.668Z,91.63
2022-08-22T05:11:30.686Z,91.25
2022-08-22T05:12:32.819Z,91.25
2022-08-22T05:13:30.725Z,91.53
2022-08-22T05:14:30.745Z,91.35
2022-08-22T05:15:30.763Z,91.83
2022-08-22T05:16:30.783Z,92.02
2022-08-22T05:17:30.803Z,91.73
2022-08-22T05:18:30.825Z,91.83
2022-08-22T05:19:32.288Z,91.83
2022-08-22T05:20:30.862Z,91.44
2022-08-22T05:21:30.883Z,91.35
2022-08-22T05:22:30.901Z,91.16
2022-08-22T05:23:30.919Z,91.44
2022-08-22T05:24:30.942Z,91.25
2022-08-22T05:25:30.960Z,91.44
2022-08-22T05:26:30.979Z,91.63
2022-08-22T05:27:30.999Z,91.73
2022-08-22T05:28:31.019Z,91.16
2022-08-22T05:29:31.039Z,91.53
2022-08-22T05:30:31.058Z,91.25
2022-08-22T05:31:31.080Z,91.35
2022-08-22T05:32:31.100Z,91.68
2022-08-22T05:33:31.117Z,91.20
2022-08-22T05:34:31.138Z,91.49
2022-08-22T05:35:31.158Z,91.30
2022-08-22T05:36:31.179Z,91.58
2022-08-22T05:37:31.198Z,91.39
2022-08-22T05:38:31.218Z,91.39
2022-08-22T05:39:31.238Z,91.39
2022-08-22T05:40:31.258Z,91.87
2022-08-22T05:41:31.279Z,91.87
2022-08-22T05:42:31.303Z,92.01
2022-08-22T05:43:31.319Z,91.92
2022-08-22T05:44:31.340Z,92.11
2022-08-22T05:45:31.361Z,91.72
2022-08-22T05:46:31.380Z,91.72
2022-08-22T05:47:31.412Z,91.72
2022-08-22T05:48:31.421Z,91.82
2022-08-22T05:49:31.439Z,91.72
2022-08-22T05:50:31.472Z,91.82
2022-08-22T05:51:31.485Z,91.72
2022-08-22T05:52:31.505Z,92.21
2022-08-22T05:53:31.525Z,91.92
2022-08-22T05:54:34.459Z,91.82
2022-08-22T05:55:31.564Z,91.53
2022-08-22T05:56:31.586Z,91.58
2022-08-22T05:57:31.605Z,91.77
2022-08-22T05:58:31.630Z,91.67
2022-08-22T05:59:31.647Z,91.96
2022-08-22T06:00:31.668Z,92.25
2022-08-22T06:01:31.789Z,91.86
2022-08-22T06:02:31.710Z,92.06
2022-08-22T06:03:31.730Z,92.06
2022-08-22T06:04:31.751Z,92.06
2022-08-22T06:05:31.770Z,92.30
2022-08-22T06:06:31.798Z,91.63
2022-08-22T06:07:31.815Z,92.30
2022-08-22T06:08:31.837Z,92.10
2022-08-22T06:09:35.246Z,92.20
2022-08-22T06:10:31.878Z,92.10
2022-08-22T06:11:33.653Z,92.10
2022-08-22T06:12:31.919Z,92.05
2022-08-22T06:13:31.939Z,91.96
2022-08-22T06:14:32.689Z,92.15
2022-08-22T06:15:31.984Z,92.34
2022-08-22T06:16:32.012Z,92.54
2022-08-22T06:17:32.028Z,92.54
2022-08-22T06:18:32.048Z,92.54
2022-08-22T06:19:32.071Z,92.63
2022-08-22T06:20:32.094Z,92.63
2022-08-22T06:21:37.175Z,92.44
2022-08-22T06:22:32.135Z,92.68
2022-08-22T06:23:32.156Z,92.48
2022-08-22T06:24:32.179Z,93.35
2022-08-22T06:25:32.200Z,93.35
2022-08-22T06:26:32.222Z,92.86
2022-08-22T06:27:32.247Z,93.35
2022-08-22T06:28:32.268Z,92.96
2022-08-22T06:29:32.286Z,93.49
2022-08-22T06:30:32.309Z,93.44
2022-08-22T06:31:32.331Z,93.68
2022-08-22T06:32:59.036Z,93.30
2022-08-22T06:33:32.374Z,93.49
2022-08-22T06:34:32.398Z,93.59
2022-08-22T06:35:32.420Z,95.31
2022-08-22T06:36:32.448Z,96.27
2022-08-22T06:37:32.463Z,96.94
2022-08-22T06:38:32.488Z,97.52
2022-08-22T06:39:32.509Z,98.38
2022-08-22T06:40:32.534Z,99.01
2022-08-22T06:41:32.554Z,98.53
2022-08-22T06:42:32.576Z,97.86
2022-08-22T06:43:32.599Z,97.57
2022-08-22T06:44:32.624Z,97.19
2022-08-22T06:45:32.642Z,97.38
2022-08-22T06:46:32.665Z,98.14
2022-08-22T06:47:32.688Z,98.29
2022-08-22T06:48:32.710Z,98.10
2022-08-22T06:49:32.733Z,97.81
2022-08-22T06:50:32.753Z,99.83
2022-08-22T06:51:32.778Z,99.73
2022-08-22T06:52:32.801Z,99.54
2022-08-22T06:53:32.823Z,98.77
2022-08-22T06:54:34.459Z,98.91
2022-08-22T06:55:32.869Z,98.53
2022-08-22T06:56:32.894Z,99.78
2022-08-22T06:57:32.913Z,99.49
2022-08-22T06:58:33.935Z,99.78
2022-08-22T06:59:32.959Z,99.99
2022-08-22T07:00:32.984Z,99.99
2022-08-22T07:01:33.076Z,99.99
2022-08-22T07:02:33.030Z,99.99
2022-08-22T07:03:33.052Z,99.99
2022-08-22T07:04:33.074Z,99.99
2022-08-22T07:05:33.099Z,99.99
2022-08-22T07:06:33.121Z,99.99
2022-08-22T07:07:33.146Z,99.99
2022-08-22T07:08:37.179Z,99.99
2022-08-22T07:09:33.194Z,99.99
2022-08-22T07:10:33.213Z,99.99
2022-08-22T07:11:33.240Z,99.99
2022-08-22T07:12:33.262Z,99.99
2022-08-22T07:13:33.283Z,99.99
2022-08-22T07:14:33.308Z,99.99
2022-08-22T07:15:33.334Z,99.99
2022-08-22T07:16:33.357Z,99.99
2022-08-22T07:17:34.546Z,99.99
2022-08-22T07:18:33.411Z,99.99
2022-08-22T07:19:33.424Z,99.99
2022-08-22T07:20:33.449Z,99.99
2022-08-22T07:21:36.165Z,99.99
2022-08-22T07:22:33.496Z,99.99
2022-08-22T07:23:33.520Z,99.99
2022-08-22T07:24:33.544Z,99.99
2022-08-22T07:25:33.568Z,99.99
2022-08-22T07:26:33.595Z,99.99
2022-08-22T07:27:33.616Z,99.99
2022-08-22T07:28:36.965Z,99.99
2022-08-22T07:29:33.663Z,99.99
2022-08-22T07:30:33.688Z,99.99
2022-08-22T07:31:33.712Z,99.99
2022-08-22T07:32:33.738Z,99.99
2022-08-22T07:33:33.761Z,99.99
2022-08-22T07:34:33.786Z,99.99
2022-08-22T07:35:33.812Z,99.99
2022-08-22T07:36:33.837Z,99.99
2022-08-22T07:37:33.858Z,99.99
2022-08-22T07:38:33.882Z,99.99
2022-08-22T07:39:33.909Z,99.99
2022-08-22T07:40:33.934Z,99.99
2022-08-22T07:41:33.957Z,99.99
2022-08-22T07:42:33.984Z,99.99
2022-08-22T07:43:34.008Z,99.99
2022-08-22T07:44:34.035Z,99.99
2022-08-22T07:45:34.058Z,99.99
2022-08-22T07:46:34.082Z,99.99
2022-08-22T07:47:34.107Z,99.99
2022-08-22T07:48:38.265Z,99.99
2022-08-22T07:49:34.157Z,99.99
2022-08-22T07:50:34.182Z,99.99
2022-08-22T07:51:34.215Z,99.99
2022-08-22T07:52:34.234Z,99.99
2022-08-22T07:53:34.261Z,99.99
2022-08-22T07:54:34.282Z,99.99
2022-08-22T07:55:34.309Z,99.99
2022-08-22T07:56:34.333Z,99.99
2022-08-22T07:57:34.358Z,99.99
2022-08-22T07:58:34.385Z,99.99
2022-08-22T07:59:34.411Z,99.99
2022-08-22T08:00:34.436Z,99.99
2022-08-22T08:01:34.534Z,99.99
2022-08-22T08:02:34.487Z,99.99
2022-08-22T08:03:34.514Z,99.99
2022-08-22T08:04:39.516Z,99.99
2022-08-22T08:05:34.565Z,99.99
2022-08-22T08:06:34.589Z,99.99
2022-08-22T08:07:34.623Z,99.99
2022-08-22T08:08:34.646Z,99.99
2022-08-22T08:09:34.671Z,99.99
2022-08-22T08:10:34.697Z,99.99
2022-08-22T08:11:34.723Z,99.99
2022-08-22T08:12:34.750Z,99.99
2022-08-22T08:13:34.774Z,99.99
2022-08-22T08:14:34.803Z,99.99
2022-08-22T08:15:34.830Z,99.99
2022-08-22T08:16:34.857Z,98.39
2022-08-22T08:17:34.882Z,95.29
2022-08-22T08:18:34.908Z,96.17
2022-08-22T08:19:34.941Z,96.07
2022-08-22T08:20:34.966Z,93.46
2022-08-22T08:21:34.991Z,92.88
2022-08-22T08:22:35.017Z,94.43
2022-08-22T08:23:37.911Z,94.43
2022-08-22T08:24:41.264Z,94.67
2022-08-22T08:25:35.099Z,94.86
2022-08-22T08:26:35.123Z,91.91
2022-08-22T08:27:35.150Z,91.96
2022-08-22T08:28:35.177Z,91.66
2022-08-22T08:29:35.199Z,90.89
2022-08-22T08:30:35.227Z,89.29
2022-08-22T08:31:35.254Z,90.07
2022-08-22T08:32:35.289Z,91.42
2022-08-22T08:33:35.312Z,92.05
2022-08-22T08:34:35.434Z,92.05
2022-08-22T08:35:42.297Z,92.05
2022-08-22T08:36:35.387Z,90.21
2022-08-22T08:37:35.411Z,91.38
2022-08-22T08:38:35.439Z,91.18
2022-08-22T08:39:35.741Z,91.38
2022-08-22T08:40:35.492Z,89.44
2022-08-22T08:41:35.518Z,90.99
2022-08-22T08:42:35.549Z,90.06
2022-08-22T08:43:35.572Z,89.19
2022-08-22T08:44:35.599Z,90.02
2022-08-22T08:45:35.625Z,87.02
2022-08-22T08:46:35.650Z,87.31
2022-08-22T08:47:35.677Z,87.31
2022-08-22T08:48:35.705Z,86.44
2022-08-22T08:49:35.729Z,87.89
2022-08-22T08:50:35.758Z,90.12
2022-08-22T08:51:35.785Z,87.31
2022-08-22T08:52:35.811Z,88.67
2022-08-22T08:53:35.834Z,91.66
2022-08-22T08:54:35.865Z,91.38
2022-08-22T08:55:35.889Z,90.84
2022-08-22T08:56:35.917Z,91.42
2022-08-22T08:57:36.019Z,90.26
2022-08-22T08:58:35.967Z,90.26
2022-08-22T08:59:35.995Z,89.58
2022-08-22T09:00:36.036Z,88.61
2022-08-22T09:01:36.186Z,87.45
2022-08-22T09:02:36.749Z,86.38
2022-08-22T09:03:36.100Z,88.03
2022-08-22T09:04:36.128Z,89.19
2022-08-22T09:05:36.154Z,89.58
2022-08-22T09:06:36.180Z,88.03
2022-08-22T09:07:36.211Z,87.93
2022-08-22T09:08:36.234Z,88.13
2022-08-22T09:09:36.259Z,88.42
2022-08-22T09:10:36.286Z,89.62
2022-08-22T09:11:36.313Z,90.78
2022-08-22T09:12:36.341Z,89.53
2022-08-22T09:13:40.918Z,89.04
2022-08-22T09:14:36.394Z,87.88
2022-08-22T09:15:37.559Z,86.04
2022-08-22T09:16:36.446Z,86.62
2022-08-22T09:17:36.473Z,87.59
2022-08-22T09:18:36.501Z,88.17
2022-08-22T09:19:36.528Z,87.59
2022-08-22T09:20:36.554Z,87.59
2022-08-22T09:21:36.584Z,85.07
2022-08-22T09:22:50.587Z,85.85
2022-08-22T09:23:36.637Z,87.68
2022-08-22T09:24:36.664Z,88.21
2022-08-22T09:25:38.597Z,86.27
2022-08-22T09:26:36.714Z,84.24
2022-08-22T09:27:36.742Z,83.65
2022-08-22T09:28:36.767Z,85.11
2022-08-22T09:30:36.823Z,85.11
2022-08-22T09:31:51.967Z,85.69
2022-08-22T09:32:36.877Z,84.53
2022-08-22T09:33:36.905Z,83.17
2022-08-22T09:34:36.934Z,82.98
2022-08-22T09:35:36.960Z,82.78
2022-08-22T09:36:36.988Z,83.75
2022-08-22T09:37:37.013Z,84.72
2022-08-22T09:38:37.047Z,85.69
2022-08-22T09:39:37.138Z,85.30
2022-08-22T09:40:37.111Z,83.37
2022-08-22T09:41:37.122Z,83.07
2022-08-22T09:42:37.149Z,83.37
2022-08-22T09:43:37.621Z,84.92
2022-08-22T09:44:39.403Z,80.17
2022-08-22T09:45:37.234Z,81.82
2022-08-22T09:46:37.259Z,82.30
2022-08-22T09:47:39.278Z,82.78
2022-08-22T09:48:37.334Z,83.22
2022-08-22T09:49:37.339Z,83.95
2022-08-22T09:50:37.369Z,83.31
2022-08-22T09:51:37.395Z,82.59
2022-08-22T09:52:37.423Z,83.02
2022-08-22T09:53:37.479Z,83.60
2022-08-22T09:54:37.476Z,85.54
2022-08-22T09:55:37.505Z,85.44
2022-08-22T09:56:37.532Z,84.67
2022-08-22T09:57:37.557Z,86.61
2022-08-22T09:58:41.617Z,86.32
2022-08-22T09:59:37.614Z,85.83
2022-08-22T10:00:37.639Z,86.55
2022-08-22T10:01:37.693Z,86.07
2022-08-22T10:02:37.695Z,86.36
2022-08-22T10:03:37.722Z,85.78
2022-08-22T10:04:37.750Z,85.49
2022-08-22T10:05:43.577Z,84.71
2022-08-22T10:06:37.804Z,83.74
2022-08-22T10:07:37.831Z,84.32
2022-08-22T10:08:37.860Z,81.21
2022-08-22T10:09:37.887Z,81.02
2022-08-22T10:10:37.914Z,82.18
2022-08-22T10:11:38.777Z,79.47
2022-08-22T10:12:37.971Z,80.29
2022-08-22T10:13:38.053Z,80.19
2022-08-22T10:14:38.027Z,81.41
2022-08-22T10:15:38.052Z,82.23
2022-08-22T10:16:38.084Z,83.10
2022-08-22T10:17:40.840Z,82.32
2022-08-22T10:18:52.502Z,81.93
2022-08-22T10:19:38.275Z,78.92
2022-08-22T10:20:38.193Z,80.38
2022-08-22T10:21:38.223Z,79.99
2022-08-22T10:22:38.254Z,80.52
2022-08-22T10:23:38.277Z,79.74
2022-08-22T10:24:43.710Z,78.97
2022-08-22T10:25:42.164Z,79.64
2022-08-22T10:26:39.045Z,79.49
2022-08-22T10:27:38.391Z,79.20
2022-08-22T10:28:38.418Z,79.10
2022-08-22T10:29:38.451Z,78.13
2022-08-22T10:30:38.477Z,78.81
2022-08-22T10:31:58.384Z,78.46
2022-08-22T10:32:38.537Z,78.07
2022-08-22T10:33:39.813Z,77.39
2022-08-22T10:34:38.594Z,76.12
2022-08-22T10:35:38.628Z,76.17
2022-08-22T10:36:38.656Z,76.45
2022-08-22T10:37:39.555Z,77.04
2022-08-22T10:38:46.319Z,77.23
2022-08-22T10:39:38.783Z,77.56
2022-08-22T10:40:38.775Z,77.95
2022-08-22T10:41:38.809Z,77.66
2022-08-22T10:42:38.838Z,77.27
2022-08-22T10:43:38.865Z,75.32
2022-08-22T10:44:38.895Z,75.23
2022-08-22T10:45:38.926Z,75.85
2022-08-22T10:46:39.045Z,73.61
2022-08-22T10:47:38.987Z,73.90
2022-08-22T10:48:39.019Z,75.56
2022-08-22T10:49:39.048Z,75.16
2022-08-22T10:50:39.079Z,74.00
2022-08-22T10:51:39.109Z,73.32
2022-08-22T10:52:39.143Z,72.34
2022-08-22T10:53:39.170Z,72.05
2022-08-22T10:54:39.212Z,73.02
2022-08-22T10:55:39.237Z,72.54
2022-08-22T10:56:39.278Z,74.00
2022-08-22T10:57:39.293Z,73.02
2022-08-22T10:58:39.325Z,73.90
2022-08-22T10:59:39.383Z,73.35
2022-08-22T11:00:46.230Z,74.72
2022-08-22T11:01:41.841Z,72.96
2022-08-22T11:02:39.448Z,74.33
2022-08-22T11:03:39.478Z,74.04
2022-08-22T11:04:39.508Z,72.96
2022-08-22T11:05:39.537Z,72.86
2022-08-22T11:06:39.570Z,70.33
2022-08-22T11:07:39.600Z,69.56
2022-08-22T11:08:39.630Z,68.97
2022-08-22T11:09:39.662Z,70.14
2022-08-22T11:10:39.694Z,70.72
2022-08-22T11:11:39.722Z,72.09
2022-08-22T11:12:41.650Z,70.17
2022-08-22T11:13:43.333Z,70.33
2022-08-22T11:14:39.815Z,69.29
2022-08-22T11:15:39.847Z,70.27
2022-08-22T11:16:41.627Z,71.73
2022-08-22T11:17:42.643Z,70.27
2022-08-22T11:18:39.938Z,69.98
2022-08-22T11:19:39.968Z,70.07
2022-08-22T11:20:39.998Z,68.26
2022-08-22T11:21:40.029Z,67.08
2022-08-22T11:22:40.060Z,67.77
2022-08-22T11:23:40.094Z,65.92
2022-08-22T11:24:46.615Z,64.84
2022-08-22T11:25:40.154Z,64.55
2022-08-22T11:26:47.388Z,63.48
2022-08-22T11:27:40.977Z,63.18
2022-08-22T11:28:40.247Z,64.26
2022-08-22T11:29:41.193Z,63.60
2022-08-22T11:30:44.906Z,63.70
2022-08-22T11:31:40.341Z,66.63
2022-08-22T11:32:40.374Z,64.71
2022-08-22T11:33:47.126Z,63.83
2022-08-22T11:34:40.438Z,63.44
2022-08-22T11:35:40.471Z,64.32
2022-08-22T11:36:40.503Z,63.44
2022-08-22T11:37:42.599Z,64.51
2022-08-22T11:38:40.568Z,65.69
2022-08-22T11:39:40.654Z,65.36
2022-08-22T11:40:40.630Z,66.05
2022-08-22T11:41:40.665Z,66.93
2022-08-22T11:42:47.358Z,64.97
2022-08-22T11:43:40.721Z,65.33
2022-08-22T11:44:50.504Z,66.50
2022-08-22T11:45:40.785Z,67.08
2022-08-22T11:46:40.814Z,67.08
2022-08-22T11:47:40.849Z,66.79
2022-08-22T11:48:40.882Z,66.69
2022-08-22T11:49:40.906Z,66.60
2022-08-22T11:50:42.205Z,65.04
2022-08-22T11:51:40.970Z,64.72
2022-08-22T11:52:40.998Z,65.78
2022-08-22T11:53:41.030Z,65.50
2022-08-22T11:54:42.274Z,66.56
2022-08-22T11:55:41.090Z,67.64
2022-08-22T11:56:41.560Z,68.42
2022-08-22T11:57:44.309Z,68.23
2022-08-22T11:58:41.188Z,65.98
2022-08-22T11:59:43.192Z,65.30
2022-08-22T12:00:41.924Z,63.35
2022-08-22T12:01:41.316Z,65.50
2022-08-22T12:02:41.344Z,66.93
2022-08-22T12:03:41.332Z,66.63
2022-08-22T12:04:43.968Z,66.63
2022-08-22T12:05:41.392Z,67.47
2022-08-22T12:06:41.420Z,67.38
2022-08-22T12:07:41.451Z,68.06
2022-08-22T12:08:41.481Z,67.96
2022-08-22T12:09:41.509Z,68.41
2022-08-22T12:10:41.541Z,67.54
2022-08-22T12:11:41.568Z,66.76
2022-08-22T12:12:42.225Z,67.25
2022-08-22T12:13:41.627Z,67.93
2022-08-22T12:14:42.864Z,69.10
2022-08-22T12:15:41.688Z,69.39
2022-08-22T12:16:41.715Z,70.26
2022-08-22T12:17:55.576Z,68.32
2022-08-22T12:18:41.772Z,68.22
2022-08-22T12:19:58.839Z,69.87
2022-08-22T12:20:45.484Z,70.72
2022-08-22T12:21:41.858Z,70.42
2022-08-22T12:22:44.453Z,70.36
2022-08-22T12:23:49.443Z,69.74
2022-08-22T12:24:41.951Z,69.26
2022-08-22T12:25:44.423Z,69.94
2022-08-22T12:26:42.004Z,71.11
2022-08-22T12:27:42.032Z,70.52
2022-08-22T12:28:42.062Z,71.01
2022-08-22T12:29:45.026Z,71.17
2022-08-22T12:30:42.118Z,71.46
2022-08-22T12:31:42.147Z,72.04
2022-08-22T12:32:43.999Z,70.49
2022-08-22T12:33:42.204Z,71.07
2022-08-22T12:34:42.231Z,69.13
2022-08-22T12:35:42.259Z,70.00
2022-08-22T12:36:42.289Z,70.04
2022-08-22T12:37:48.276Z,70.81
2022-08-22T12:38:42.349Z,69.06
2022-08-22T12:39:42.402Z,69.26
2022-08-22T12:40:43.810Z,69.45
2022-08-22T12:41:46.629Z,70.13
2022-08-22T12:42:42.459Z,70.52
2022-08-22T12:43:42.830Z,70.62
2022-08-22T12:44:42.517Z,69.10
2022-08-22T12:45:42.546Z,69.84